sensor_id;sensor_type;location;lat;lon;timestamp;pressure;altitude;pressure_sealevel;temperature
20289;BMP180;10303;51.960;8.372;2023-05-10T00:00:40;99625.00;;;18.80
20289;BMP180;10303;51.960;8.372;2023-05-10T00:03:07;99631.00;;;18.80
20289;BMP180;10303;51.960;8.372;2023-05-10T00:05:33;99633.00;;;18.80
20289;BMP180;10303;51.960;8.372;2023-05-10T00:07:59;99633.00;;;18.80
20289;BMP180;10303;51.960;8.372;2023-05-10T00:10:25;99631.00;;;18.80
20289;BMP180;10303;51.960;8.372;2023-05-10T00:12:50;99620.00;;;18.80
20289;BMP180;10303;51.960;8.372;2023-05-10T00:15:16;99626.00;;;18.70
20289;BMP180;10303;51.960;8.372;2023-05-10T00:17:42;99631.00;;;18.70
20289;BMP180;10303;51.960;8.372;2023-05-10T00:20:09;99625.00;;;18.70
20289;BMP180;10303;51.960;8.372;2023-05-10T00:22:35;99631.00;;;18.70
20289;BMP180;10303;51.960;8.372;2023-05-10T00:25:02;99629.00;;;18.70
20289;BMP180;10303;51.960;8.372;2023-05-10T00:27:28;99621.00;;;18.70
20289;BMP180;10303;51.960;8.372;2023-05-10T00:29:53;99625.00;;;18.70
20289;BMP180;10303;51.960;8.372;2023-05-10T00:32:19;99623.00;;;18.70
20289;BMP180;10303;51.960;8.372;2023-05-10T00:34:46;99619.00;;;18.70
20289;BMP180;10303;51.960;8.372;2023-05-10T00:37:12;99615.00;;;18.70
20289;BMP180;10303;51.960;8.372;2023-05-10T00:39:38;99615.00;;;18.70
20289;BMP180;10303;51.960;8.372;2023-05-10T00:42:04;99618.00;;;18.70
20289;BMP180;10303;51.960;8.372;2023-05-10T00:44:30;99620.00;;;18.70
20289;BMP180;10303;51.960;8.372;2023-05-10T00:46:57;99620.00;;;18.70
20289;BMP180;10303;51.960;8.372;2023-05-10T00:49:24;99623.00;;;18.70
20289;BMP180;10303;51.960;8.372;2023-05-10T00:51:50;99622.00;;;18.70
20289;BMP180;10303;51.960;8.372;2023-05-10T00:54:16;99619.00;;;18.70
20289;BMP180;10303;51.960;8.372;2023-05-10T00:56:42;99622.00;;;18.70
20289;BMP180;10303;51.960;8.372;2023-05-10T00:59:16;99620.00;;;18.70
20289;BMP180;10303;51.960;8.372;2023-05-10T01:01:47;99619.00;;;18.70
20289;BMP180;10303;51.960;8.372;2023-05-10T01:04:14;99617.00;;;18.70
20289;BMP180;10303;51.960;8.372;2023-05-10T01:06:42;99620.00;;;18.70
20289;BMP180;10303;51.960;8.372;2023-05-10T01:09:09;99615.00;;;18.70
20289;BMP180;10303;51.960;8.372;2023-05-10T01:11:38;99613.00;;;18.60
20289;BMP180;10303;51.960;8.372;2023-05-10T01:14:04;99608.00;;;18.70
20289;BMP180;10303;51.960;8.372;2023-05-10T01:16:38;99608.00;;;18.60
20289;BMP180;10303;51.960;8.372;2023-05-10T01:31:02;99618.00;;;18.50
20289;BMP180;10303;51.960;8.372;2023-05-10T01:34:20;99613.00;;;18.50
20289;BMP180;10303;51.960;8.372;2023-05-10T01:36:59;99610.00;;;18.50
20289;BMP180;10303;51.960;8.372;2023-05-10T01:39:51;99617.00;;;18.50
20289;BMP180;10303;51.960;8.372;2023-05-10T01:42:29;99609.00;;;18.50
20289;BMP180;10303;51.960;8.372;2023-05-10T01:45:28;99609.00;;;18.40
20289;BMP180;10303;51.960;8.372;2023-05-10T01:48:10;99618.00;;;18.40
20289;BMP180;10303;51.960;8.372;2023-05-10T01:50:41;99613.00;;;18.40
20289;BMP180;10303;51.960;8.372;2023-05-10T01:53:11;99612.00;;;18.40
20289;BMP180;10303;51.960;8.372;2023-05-10T01:55:51;99612.00;;;18.40
20289;BMP180;10303;51.960;8.372;2023-05-10T01:58:30;99616.00;;;18.40
20289;BMP180;10303;51.960;8.372;2023-05-10T02:01:00;99614.00;;;18.40
20289;BMP180;10303;51.960;8.372;2023-05-10T02:03:29;99606.00;;;18.40
20289;BMP180;10303;51.960;8.372;2023-05-10T02:05:57;99611.00;;;18.40
20289;BMP180;10303;51.960;8.372;2023-05-10T02:08:25;99624.00;;;18.40
20289;BMP180;10303;51.960;8.372;2023-05-10T02:10:56;99622.00;;;18.40
20289;BMP180;10303;51.960;8.372;2023-05-10T02:13:24;99621.00;;;18.30
20289;BMP180;10303;51.960;8.372;2023-05-10T02:15:54;99625.00;;;18.30
20289;BMP180;10303;51.960;8.372;2023-05-10T02:18:22;99628.00;;;18.20
20289;BMP180;10303;51.960;8.372;2023-05-10T02:20:51;99634.00;;;18.20
20289;BMP180;10303;51.960;8.372;2023-05-10T02:23:20;99631.00;;;18.10
20289;BMP180;10303;51.960;8.372;2023-05-10T02:25:48;99630.00;;;18.10
20289;BMP180;10303;51.960;8.372;2023-05-10T02:28:17;99619.00;;;18.10
20289;BMP180;10303;51.960;8.372;2023-05-10T02:30:44;99626.00;;;18.10
20289;BMP180;10303;51.960;8.372;2023-05-10T02:33:11;99626.00;;;18.10
20289;BMP180;10303;51.960;8.372;2023-05-10T02:35:39;99626.00;;;18.10
20289;BMP180;10303;51.960;8.372;2023-05-10T02:38:07;99619.00;;;18.00
20289;BMP180;10303;51.960;8.372;2023-05-10T02:40:36;99625.00;;;18.00
20289;BMP180;10303;51.960;8.372;2023-05-10T02:43:06;99621.00;;;18.00
20289;BMP180;10303;51.960;8.372;2023-05-10T02:45:36;99622.00;;;18.00
20289;BMP180;10303;51.960;8.372;2023-05-10T02:48:05;99623.00;;;18.00
20289;BMP180;10303;51.960;8.372;2023-05-10T02:50:33;99616.00;;;17.90
20289;BMP180;10303;51.960;8.372;2023-05-10T02:53:13;99618.00;;;17.80
20289;BMP180;10303;51.960;8.372;2023-05-10T02:55:43;99622.00;;;17.80
20289;BMP180;10303;51.960;8.372;2023-05-10T02:58:11;99625.00;;;17.80
20289;BMP180;10303;51.960;8.372;2023-05-10T03:00:37;99621.00;;;17.80
20289;BMP180;10303;51.960;8.372;2023-05-10T03:03:03;99629.00;;;17.80
20289;BMP180;10303;51.960;8.372;2023-05-10T03:05:29;99627.00;;;17.70
20289;BMP180;10303;51.960;8.372;2023-05-10T03:07:59;99628.00;;;17.70
20289;BMP180;10303;51.960;8.372;2023-05-10T03:10:30;99624.00;;;17.70
20289;BMP180;10303;51.960;8.372;2023-05-10T03:13:31;99628.00;;;17.60
20289;BMP180;10303;51.960;8.372;2023-05-10T03:16:24;99627.00;;;17.60
20289;BMP180;10303;51.960;8.372;2023-05-10T03:21:30;99634.00;;;17.60
20289;BMP180;10303;51.960;8.372;2023-05-10T03:24:08;99630.00;;;17.50
20289;BMP180;10303;51.960;8.372;2023-05-10T03:26:38;99629.00;;;17.50
20289;BMP180;10303;51.960;8.372;2023-05-10T03:29:13;99637.00;;;17.50
20289;BMP180;10303;51.960;8.372;2023-05-10T03:31:41;99635.00;;;17.50
20289;BMP180;10303;51.960;8.372;2023-05-10T03:34:07;99641.00;;;17.50
20289;BMP180;10303;51.960;8.372;2023-05-10T03:36:33;99637.00;;;17.40
20289;BMP180;10303;51.960;8.372;2023-05-10T03:39:00;99638.00;;;17.40
20289;BMP180;10303;51.960;8.372;2023-05-10T03:41:26;99640.00;;;17.30
20289;BMP180;10303;51.960;8.372;2023-05-10T03:43:53;99650.00;;;17.20
20289;BMP180;10303;51.960;8.372;2023-05-10T03:46:20;99643.00;;;17.10
20289;BMP180;10303;51.960;8.372;2023-05-10T03:48:45;99657.00;;;17.00
20289;BMP180;10303;51.960;8.372;2023-05-10T03:51:11;99658.00;;;17.00
20289;BMP180;10303;51.960;8.372;2023-05-10T03:53:39;99660.00;;;16.90
20289;BMP180;10303;51.960;8.372;2023-05-10T03:56:05;99656.00;;;16.80
20289;BMP180;10303;51.960;8.372;2023-05-10T03:58:31;99657.00;;;16.80
20289;BMP180;10303;51.960;8.372;2023-05-10T04:00:58;99663.00;;;16.80
20289;BMP180;10303;51.960;8.372;2023-05-10T04:03:24;99662.00;;;16.70
20289;BMP180;10303;51.960;8.372;2023-05-10T04:06:02;99664.00;;;16.70
20289;BMP180;10303;51.960;8.372;2023-05-10T04:08:28;99663.00;;;16.70
20289;BMP180;10303;51.960;8.372;2023-05-10T04:10:54;99672.00;;;16.60
20289;BMP180;10303;51.960;8.372;2023-05-10T04:13:20;99677.00;;;16.60
20289;BMP180;10303;51.960;8.372;2023-05-10T04:15:47;99673.00;;;16.50
20289;BMP180;10303;51.960;8.372;2023-05-10T04:18:13;99680.00;;;16.50
20289;BMP180;10303;51.960;8.372;2023-05-10T04:20:39;99686.00;;;16.50
20289;BMP180;10303;51.960;8.372;2023-05-10T04:23:04;99681.00;;;16.40
20289;BMP180;10303;51.960;8.372;2023-05-10T04:25:34;99693.00;;;16.40
20289;BMP180;10303;51.960;8.372;2023-05-10T04:28:00;99687.00;;;16.40
20289;BMP180;10303;51.960;8.372;2023-05-10T04:30:26;99680.00;;;16.30
20289;BMP180;10303;51.960;8.372;2023-05-10T04:32:54;99701.00;;;16.30
20289;BMP180;10303;51.960;8.372;2023-05-10T04:35:20;99687.00;;;16.30
20289;BMP180;10303;51.960;8.372;2023-05-10T04:37:45;99689.00;;;16.30
20289;BMP180;10303;51.960;8.372;2023-05-10T04:40:12;99698.00;;;16.30
20289;BMP180;10303;51.960;8.372;2023-05-10T04:42:40;99701.00;;;16.20
20289;BMP180;10303;51.960;8.372;2023-05-10T04:45:07;99707.00;;;16.30
20289;BMP180;10303;51.960;8.372;2023-05-10T04:47:35;99708.00;;;16.30
20289;BMP180;10303;51.960;8.372;2023-05-10T04:50:01;99719.00;;;16.30
20289;BMP180;10303;51.960;8.372;2023-05-10T04:52:27;99718.00;;;16.20
20289;BMP180;10303;51.960;8.372;2023-05-10T04:54:53;99714.00;;;16.20
20289;BMP180;10303;51.960;8.372;2023-05-10T04:57:19;99720.00;;;16.20
20289;BMP180;10303;51.960;8.372;2023-05-10T04:59:44;99720.00;;;16.20
20289;BMP180;10303;51.960;8.372;2023-05-10T05:02:11;99727.00;;;16.20
20289;BMP180;10303;51.960;8.372;2023-05-10T05:04:37;99709.00;;;16.20
20289;BMP180;10303;51.960;8.372;2023-05-10T05:07:02;99723.00;;;16.20
20289;BMP180;10303;51.960;8.372;2023-05-10T05:09:28;99733.00;;;16.20
20289;BMP180;10303;51.960;8.372;2023-05-10T05:11:55;99727.00;;;16.20
20289;BMP180;10303;51.960;8.372;2023-05-10T05:14:21;99733.00;;;16.20
20289;BMP180;10303;51.960;8.372;2023-05-10T05:16:47;99739.00;;;16.30
20289;BMP180;10303;51.960;8.372;2023-05-10T05:19:13;99738.00;;;16.20
20289;BMP180;10303;51.960;8.372;2023-05-10T05:21:40;99744.00;;;16.30
20289;BMP180;10303;51.960;8.372;2023-05-10T05:24:06;99741.00;;;16.30
20289;BMP180;10303;51.960;8.372;2023-05-10T05:26:32;99757.00;;;16.30
20289;BMP180;10303;51.960;8.372;2023-05-10T05:28:58;99744.00;;;16.30
20289;BMP180;10303;51.960;8.372;2023-05-10T05:31:24;99758.00;;;16.30
20289;BMP180;10303;51.960;8.372;2023-05-10T05:33:50;99754.00;;;16.30
20289;BMP180;10303;51.960;8.372;2023-05-10T05:36:16;99770.00;;;16.30
20289;BMP180;10303;51.960;8.372;2023-05-10T05:38:42;99770.00;;;16.20
20289;BMP180;10303;51.960;8.372;2023-05-10T05:41:09;99770.00;;;16.20
20289;BMP180;10303;51.960;8.372;2023-05-10T05:43:35;99777.00;;;16.20
20289;BMP180;10303;51.960;8.372;2023-05-10T05:46:01;99775.00;;;16.20
20289;BMP180;10303;51.960;8.372;2023-05-10T05:48:29;99781.00;;;16.20
20289;BMP180;10303;51.960;8.372;2023-05-10T05:50:56;99778.00;;;16.20
20289;BMP180;10303;51.960;8.372;2023-05-10T05:53:23;99783.00;;;16.30
20289;BMP180;10303;51.960;8.372;2023-05-10T05:55:56;99782.00;;;16.20
20289;BMP180;10303;51.960;8.372;2023-05-10T05:58:24;99791.00;;;16.30
20289;BMP180;10303;51.960;8.372;2023-05-10T06:00:51;99784.00;;;16.30
20289;BMP180;10303;51.960;8.372;2023-05-10T06:03:18;99781.00;;;16.40
20289;BMP180;10303;51.960;8.372;2023-05-10T06:05:44;99784.00;;;16.40
20289;BMP180;10303;51.960;8.372;2023-05-10T06:08:10;99790.00;;;16.40
20289;BMP180;10303;51.960;8.372;2023-05-10T06:10:37;99795.00;;;16.50
20289;BMP180;10303;51.960;8.372;2023-05-10T06:13:03;99799.00;;;16.50
20289;BMP180;10303;51.960;8.372;2023-05-10T06:15:29;99793.00;;;16.50
20289;BMP180;10303;51.960;8.372;2023-05-10T06:17:55;99809.00;;;16.50
20289;BMP180;10303;51.960;8.372;2023-05-10T06:20:21;99796.00;;;16.60
20289;BMP180;10303;51.960;8.372;2023-05-10T06:22:47;99804.00;;;16.60
20289;BMP180;10303;51.960;8.372;2023-05-10T06:25:13;99819.00;;;16.60
20289;BMP180;10303;51.960;8.372;2023-05-10T06:27:40;99819.00;;;16.60
20289;BMP180;10303;51.960;8.372;2023-05-10T06:30:06;99813.00;;;16.60
20289;BMP180;10303;51.960;8.372;2023-05-10T06:32:34;99822.00;;;16.60
20289;BMP180;10303;51.960;8.372;2023-05-10T06:35:00;99824.00;;;16.70
20289;BMP180;10303;51.960;8.372;2023-05-10T06:37:26;99830.00;;;16.70
20289;BMP180;10303;51.960;8.372;2023-05-10T06:39:52;99835.00;;;16.70
20289;BMP180;10303;51.960;8.372;2023-05-10T06:42:17;99836.00;;;16.70
20289;BMP180;10303;51.960;8.372;2023-05-10T06:44:46;99841.00;;;16.80
20289;BMP180;10303;51.960;8.372;2023-05-10T06:47:12;99842.00;;;16.80
20289;BMP180;10303;51.960;8.372;2023-05-10T06:49:37;99835.00;;;16.80
20289;BMP180;10303;51.960;8.372;2023-05-10T06:52:03;99840.00;;;16.80
20289;BMP180;10303;51.960;8.372;2023-05-10T06:54:29;99840.00;;;16.80
20289;BMP180;10303;51.960;8.372;2023-05-10T06:56:55;99852.00;;;16.80
20289;BMP180;10303;51.960;8.372;2023-05-10T06:59:21;99851.00;;;16.90
20289;BMP180;10303;51.960;8.372;2023-05-10T07:01:47;99848.00;;;16.90
20289;BMP180;10303;51.960;8.372;2023-05-10T07:04:13;99855.00;;;16.90
20289;BMP180;10303;51.960;8.372;2023-05-10T07:06:39;99847.00;;;16.90
20289;BMP180;10303;51.960;8.372;2023-05-10T07:09:05;99854.00;;;16.90
20289;BMP180;10303;51.960;8.372;2023-05-10T07:11:31;99846.00;;;16.90
20289;BMP180;10303;51.960;8.372;2023-05-10T07:13:57;99851.00;;;17.00
20289;BMP180;10303;51.960;8.372;2023-05-10T07:16:23;99853.00;;;17.00
20289;BMP180;10303;51.960;8.372;2023-05-10T07:18:49;99859.00;;;17.00
20289;BMP180;10303;51.960;8.372;2023-05-10T07:21:16;99865.00;;;17.10
20289;BMP180;10303;51.960;8.372;2023-05-10T07:23:42;99855.00;;;17.10
20289;BMP180;10303;51.960;8.372;2023-05-10T07:26:08;99859.00;;;17.10
20289;BMP180;10303;51.960;8.372;2023-05-10T07:28:35;99858.00;;;17.20
20289;BMP180;10303;51.960;8.372;2023-05-10T07:31:03;99859.00;;;17.20
20289;BMP180;10303;51.960;8.372;2023-05-10T07:33:29;99856.00;;;17.30
20289;BMP180;10303;51.960;8.372;2023-05-10T07:35:55;99865.00;;;17.40
20289;BMP180;10303;51.960;8.372;2023-05-10T07:38:21;99869.00;;;17.40
20289;BMP180;10303;51.960;8.372;2023-05-10T07:40:47;99864.00;;;17.40
20289;BMP180;10303;51.960;8.372;2023-05-10T07:43:13;99865.00;;;17.50
20289;BMP180;10303;51.960;8.372;2023-05-10T07:45:39;99867.00;;;17.50
20289;BMP180;10303;51.960;8.372;2023-05-10T07:48:05;99870.00;;;17.50
20289;BMP180;10303;51.960;8.372;2023-05-10T07:50:31;99869.00;;;17.60
20289;BMP180;10303;51.960;8.372;2023-05-10T07:52:57;99870.00;;;17.60
20289;BMP180;10303;51.960;8.372;2023-05-10T07:55:23;99875.00;;;17.70
20289;BMP180;10303;51.960;8.372;2023-05-10T07:57:49;99871.00;;;17.70
20289;BMP180;10303;51.960;8.372;2023-05-10T08:00:19;99877.00;;;17.80
20289;BMP180;10303;51.960;8.372;2023-05-10T08:02:46;99873.00;;;17.90
20289;BMP180;10303;51.960;8.372;2023-05-10T08:05:12;99860.00;;;18.00
20289;BMP180;10303;51.960;8.372;2023-05-10T08:07:39;99860.00;;;18.00
20289;BMP180;10303;51.960;8.372;2023-05-10T08:10:06;99873.00;;;18.10
20289;BMP180;10303;51.960;8.372;2023-05-10T08:12:32;99870.00;;;18.20
20289;BMP180;10303;51.960;8.372;2023-05-10T08:14:58;99877.00;;;18.30
20289;BMP180;10303;51.960;8.372;2023-05-10T08:17:24;99874.00;;;18.40
20289;BMP180;10303;51.960;8.372;2023-05-10T08:19:50;99886.00;;;18.50
20289;BMP180;10303;51.960;8.372;2023-05-10T08:22:15;99891.00;;;18.50
20289;BMP180;10303;51.960;8.372;2023-05-10T08:24:42;99894.00;;;18.50
20289;BMP180;10303;51.960;8.372;2023-05-10T08:27:08;99884.00;;;18.40
20289;BMP180;10303;51.960;8.372;2023-05-10T08:29:34;99901.00;;;18.40
20289;BMP180;10303;51.960;8.372;2023-05-10T08:32:00;99902.00;;;18.30
20289;BMP180;10303;51.960;8.372;2023-05-10T08:34:27;99896.00;;;18.30
20289;BMP180;10303;51.960;8.372;2023-05-10T08:36:53;99898.00;;;18.20
20289;BMP180;10303;51.960;8.372;2023-05-10T08:39:19;99902.00;;;18.20
20289;BMP180;10303;51.960;8.372;2023-05-10T08:41:47;99896.00;;;18.10
20289;BMP180;10303;51.960;8.372;2023-05-10T08:44:15;99897.00;;;18.10
20289;BMP180;10303;51.960;8.372;2023-05-10T08:46:46;99902.00;;;18.10
20289;BMP180;10303;51.960;8.372;2023-05-10T08:49:17;99906.00;;;18.10
20289;BMP180;10303;51.960;8.372;2023-05-10T08:51:52;99902.00;;;18.10
20289;BMP180;10303;51.960;8.372;2023-05-10T08:54:22;99907.00;;;18.10
20289;BMP180;10303;51.960;8.372;2023-05-10T08:56:48;99908.00;;;18.20
20289;BMP180;10303;51.960;8.372;2023-05-10T08:59:14;99919.00;;;18.20
20289;BMP180;10303;51.960;8.372;2023-05-10T09:01:44;99921.00;;;18.30
20289;BMP180;10303;51.960;8.372;2023-05-10T09:04:12;99922.00;;;18.30
20289;BMP180;10303;51.960;8.372;2023-05-10T09:06:39;99922.00;;;18.40
20289;BMP180;10303;51.960;8.372;2023-05-10T09:09:05;99923.00;;;18.40
20289;BMP180;10303;51.960;8.372;2023-05-10T09:11:31;99919.00;;;18.50
20289;BMP180;10303;51.960;8.372;2023-05-10T09:13:57;99932.00;;;18.50
20289;BMP180;10303;51.960;8.372;2023-05-10T09:16:24;99927.00;;;18.60
20289;BMP180;10303;51.960;8.372;2023-05-10T09:18:50;99935.00;;;18.70
20289;BMP180;10303;51.960;8.372;2023-05-10T09:21:16;99926.00;;;18.80
20289;BMP180;10303;51.960;8.372;2023-05-10T09:23:46;99937.00;;;19.00
20289;BMP180;10303;51.960;8.372;2023-05-10T09:26:12;99944.00;;;19.20
20289;BMP180;10303;51.960;8.372;2023-05-10T09:28:56;99932.00;;;19.30
20289;BMP180;10303;51.960;8.372;2023-05-10T09:31:23;99945.00;;;19.40
20289;BMP180;10303;51.960;8.372;2023-05-10T09:33:51;99947.00;;;19.50
20289;BMP180;10303;51.960;8.372;2023-05-10T09:36:17;99941.00;;;19.60
20289;BMP180;10303;51.960;8.372;2023-05-10T09:38:51;99938.00;;;19.60
20289;BMP180;10303;51.960;8.372;2023-05-10T09:41:22;99940.00;;;19.70
20289;BMP180;10303;51.960;8.372;2023-05-10T09:43:49;99954.00;;;19.70
20289;BMP180;10303;51.960;8.372;2023-05-10T09:46:16;99946.00;;;19.70
20289;BMP180;10303;51.960;8.372;2023-05-10T09:48:45;99943.00;;;19.70
20289;BMP180;10303;51.960;8.372;2023-05-10T09:51:21;99948.00;;;19.70
20289;BMP180;10303;51.960;8.372;2023-05-10T09:53:48;99958.00;;;19.80
20289;BMP180;10303;51.960;8.372;2023-05-10T09:56:36;99946.00;;;19.90
20289;BMP180;10303;51.960;8.372;2023-05-10T09:59:06;99928.00;;;20.00
20289;BMP180;10303;51.960;8.372;2023-05-10T10:01:34;99948.00;;;20.20
20289;BMP180;10303;51.960;8.372;2023-05-10T10:04:09;99953.00;;;20.40
20289;BMP180;10303;51.960;8.372;2023-05-10T10:06:39;99957.00;;;20.60
20289;BMP180;10303;51.960;8.372;2023-05-10T10:09:06;99952.00;;;20.70
20289;BMP180;10303;51.960;8.372;2023-05-10T10:11:38;99939.00;;;20.80
20289;BMP180;10303;51.960;8.372;2023-05-10T10:14:05;99950.00;;;21.00
20289;BMP180;10303;51.960;8.372;2023-05-10T10:16:32;99940.00;;;21.20
20289;BMP180;10303;51.960;8.372;2023-05-10T10:18:58;99945.00;;;21.30
20289;BMP180;10303;51.960;8.372;2023-05-10T10:21:24;99936.00;;;21.50
20289;BMP180;10303;51.960;8.372;2023-05-10T10:23:51;99943.00;;;21.70
20289;BMP180;10303;51.960;8.372;2023-05-10T10:26:19;99941.00;;;21.70
20289;BMP180;10303;51.960;8.372;2023-05-10T10:29:12;99951.00;;;21.80
20289;BMP180;10303;51.960;8.372;2023-05-10T10:32:18;99945.00;;;21.80
20289;BMP180;10303;51.960;8.372;2023-05-10T10:34:45;99941.00;;;22.00
20289;BMP180;10303;51.960;8.372;2023-05-10T10:37:11;99945.00;;;22.20
20289;BMP180;10303;51.960;8.372;2023-05-10T10:39:37;99941.00;;;22.40
20289;BMP180;10303;51.960;8.372;2023-05-10T10:42:04;99948.00;;;22.60
20289;BMP180;10303;51.960;8.372;2023-05-10T10:57:28;99935.00;;;23.70
20289;BMP180;10303;51.960;8.372;2023-05-10T11:00:36;99944.00;;;23.90
20289;BMP180;10303;51.960;8.372;2023-05-10T11:03:10;99941.00;;;24.00
20289;BMP180;10303;51.960;8.372;2023-05-10T11:05:45;99944.00;;;24.10
20289;BMP180;10303;51.960;8.372;2023-05-10T11:08:41;99946.00;;;24.00
20289;BMP180;10303;51.960;8.372;2023-05-10T11:11:08;99950.00;;;23.90
20289;BMP180;10303;51.960;8.372;2023-05-10T11:13:42;99955.00;;;23.80
20289;BMP180;10303;51.960;8.372;2023-05-10T11:16:17;99951.00;;;23.70
20289;BMP180;10303;51.960;8.372;2023-05-10T11:19:07;99958.00;;;23.50
20289;BMP180;10303;51.960;8.372;2023-05-10T11:24:16;99945.00;;;23.50
20289;BMP180;10303;51.960;8.372;2023-05-10T11:26:42;99949.00;;;23.60
20289;BMP180;10303;51.960;8.372;2023-05-10T11:29:08;99954.00;;;23.60
20289;BMP180;10303;51.960;8.372;2023-05-10T11:31:42;99970.00;;;23.50
20289;BMP180;10303;51.960;8.372;2023-05-10T11:34:09;99959.00;;;23.40
20289;BMP180;10303;51.960;8.372;2023-05-10T11:36:36;99961.00;;;23.30
20289;BMP180;10303;51.960;8.372;2023-05-10T11:39:03;99960.00;;;23.10
20289;BMP180;10303;51.960;8.372;2023-05-10T11:41:30;99969.00;;;22.90
20289;BMP180;10303;51.960;8.372;2023-05-10T11:43:57;99986.00;;;22.60
20289;BMP180;10303;51.960;8.372;2023-05-10T11:46:26;99981.00;;;22.40
20289;BMP180;10303;51.960;8.372;2023-05-10T11:48:59;99999.00;;;22.20
20289;BMP180;10303;51.960;8.372;2023-05-10T11:51:27;99999.00;;;22.00
20289;BMP180;10303;51.960;8.372;2023-05-10T11:53:55;99981.00;;;21.90
20289;BMP180;10303;51.960;8.372;2023-05-10T11:56:21;99984.00;;;21.80
20289;BMP180;10303;51.960;8.372;2023-05-10T11:58:55;99987.00;;;21.70
20289;BMP180;10303;51.960;8.372;2023-05-10T12:01:22;99999.00;;;21.60
20289;BMP180;10303;51.960;8.372;2023-05-10T12:03:55;100002.00;;;21.50
20289;BMP180;10303;51.960;8.372;2023-05-10T12:06:27;100002.00;;;21.50
20289;BMP180;10303;51.960;8.372;2023-05-10T12:08:54;99998.00;;;21.50
20289;BMP180;10303;51.960;8.372;2023-05-10T12:11:26;99993.00;;;21.50
20289;BMP180;10303;51.960;8.372;2023-05-10T12:13:53;99995.00;;;21.50
20289;BMP180;10303;51.960;8.372;2023-05-10T12:16:26;99993.00;;;21.50
20289;BMP180;10303;51.960;8.372;2023-05-10T12:18:58;99988.00;;;21.50
20289;BMP180;10303;51.960;8.372;2023-05-10T12:21:26;99997.00;;;21.50
20289;BMP180;10303;51.960;8.372;2023-05-10T12:23:58;99997.00;;;21.50
20289;BMP180;10303;51.960;8.372;2023-05-10T12:26:27;100000.00;;;21.50
20289;BMP180;10303;51.960;8.372;2023-05-10T12:28:55;99999.00;;;21.50
20289;BMP180;10303;51.960;8.372;2023-05-10T12:31:59;99999.00;;;21.50
20289;BMP180;10303;51.960;8.372;2023-05-10T12:34:33;99999.00;;;21.60
20289;BMP180;10303;51.960;8.372;2023-05-10T12:37:00;100007.00;;;21.70
20289;BMP180;10303;51.960;8.372;2023-05-10T12:39:40;100005.00;;;21.70
20289;BMP180;10303;51.960;8.372;2023-05-10T12:42:07;100006.00;;;21.80
20289;BMP180;10303;51.960;8.372;2023-05-10T12:44:33;99999.00;;;21.90
20289;BMP180;10303;51.960;8.372;2023-05-10T12:46:59;100007.00;;;22.00
20289;BMP180;10303;51.960;8.372;2023-05-10T12:49:25;100006.00;;;22.10
20289;BMP180;10303;51.960;8.372;2023-05-10T12:51:51;100016.00;;;22.20
20289;BMP180;10303;51.960;8.372;2023-05-10T12:54:17;100017.00;;;22.30
20289;BMP180;10303;51.960;8.372;2023-05-10T12:56:43;100018.00;;;22.40
20289;BMP180;10303;51.960;8.372;2023-05-10T12:59:09;100022.00;;;22.40
20289;BMP180;10303;51.960;8.372;2023-05-10T13:01:35;100021.00;;;22.40
20289;BMP180;10303;51.960;8.372;2023-05-10T13:04:01;100025.00;;;22.40
20289;BMP180;10303;51.960;8.372;2023-05-10T13:06:26;100029.00;;;22.40
20289;BMP180;10303;51.960;8.372;2023-05-10T13:08:52;100047.00;;;22.20
20289;BMP180;10303;51.960;8.372;2023-05-10T13:11:19;100043.00;;;22.00
20289;BMP180;10303;51.960;8.372;2023-05-10T13:13:47;100057.00;;;21.70
20289;BMP180;10303;51.960;8.372;2023-05-10T13:16:13;100048.00;;;21.30
20289;BMP180;10303;51.960;8.372;2023-05-10T13:18:38;100054.00;;;21.00
20289;BMP180;10303;51.960;8.372;2023-05-10T13:21:05;100056.00;;;20.80
20289;BMP180;10303;51.960;8.372;2023-05-10T13:23:31;100057.00;;;20.70
20289;BMP180;10303;51.960;8.372;2023-05-10T13:25:57;100060.00;;;20.50
20289;BMP180;10303;51.960;8.372;2023-05-10T13:28:23;100066.00;;;20.40
20289;BMP180;10303;51.960;8.372;2023-05-10T13:30:49;100062.00;;;20.20
20289;BMP180;10303;51.960;8.372;2023-05-10T13:33:15;100067.00;;;20.20
20289;BMP180;10303;51.960;8.372;2023-05-10T13:35:41;100061.00;;;20.10
20289;BMP180;10303;51.960;8.372;2023-05-10T13:38:07;100062.00;;;20.10
20289;BMP180;10303;51.960;8.372;2023-05-10T13:40:34;100054.00;;;20.10
20289;BMP180;10303;51.960;8.372;2023-05-10T13:43:00;100063.00;;;20.10
20289;BMP180;10303;51.960;8.372;2023-05-10T13:45:26;100054.00;;;20.10
20289;BMP180;10303;51.960;8.372;2023-05-10T13:47:52;100052.00;;;20.10
20289;BMP180;10303;51.960;8.372;2023-05-10T13:50:17;100052.00;;;20.20
20289;BMP180;10303;51.960;8.372;2023-05-10T13:52:44;100064.00;;;20.30
20289;BMP180;10303;51.960;8.372;2023-05-10T13:55:12;100055.00;;;20.40
20289;BMP180;10303;51.960;8.372;2023-05-10T13:57:39;100053.00;;;20.60
20289;BMP180;10303;51.960;8.372;2023-05-10T14:00:05;100055.00;;;20.70
20289;BMP180;10303;51.960;8.372;2023-05-10T14:02:33;100052.00;;;20.80
20289;BMP180;10303;51.960;8.372;2023-05-10T14:05:00;100054.00;;;20.90
20289;BMP180;10303;51.960;8.372;2023-05-10T14:07:26;100064.00;;;21.10
20289;BMP180;10303;51.960;8.372;2023-05-10T14:09:54;100060.00;;;21.20
20289;BMP180;10303;51.960;8.372;2023-05-10T14:12:20;100056.00;;;21.30
20289;BMP180;10303;51.960;8.372;2023-05-10T14:14:46;100058.00;;;21.50
20289;BMP180;10303;51.960;8.372;2023-05-10T14:17:12;100060.00;;;21.60
20289;BMP180;10303;51.960;8.372;2023-05-10T14:19:38;100053.00;;;21.70
20289;BMP180;10303;51.960;8.372;2023-05-10T14:22:05;100062.00;;;21.80
20289;BMP180;10303;51.960;8.372;2023-05-10T14:24:31;100061.00;;;21.80
20289;BMP180;10303;51.960;8.372;2023-05-10T14:26:57;100062.00;;;21.90
20289;BMP180;10303;51.960;8.372;2023-05-10T14:29:23;100054.00;;;22.00
20289;BMP180;10303;51.960;8.372;2023-05-10T14:31:49;100048.00;;;22.00
20289;BMP180;10303;51.960;8.372;2023-05-10T14:34:16;100047.00;;;22.00
20289;BMP180;10303;51.960;8.372;2023-05-10T14:36:42;100056.00;;;22.10
20289;BMP180;10303;51.960;8.372;2023-05-10T14:39:08;100051.00;;;22.10
20289;BMP180;10303;51.960;8.372;2023-05-10T14:41:35;100054.00;;;22.10
20289;BMP180;10303;51.960;8.372;2023-05-10T14:44:01;100054.00;;;22.20